createdAt,value
2018-12-23T00:01:32.417Z,8.93
2018-12-23T00:03:58.564Z,11.10
2018-12-23T00:06:24.681Z,8.63
2018-12-23T00:08:50.866Z,9.80
2018-12-23T00:11:17.036Z,9.07
2018-12-23T00:13:43.174Z,8.20
2018-12-23T00:16:09.360Z,7.80
2018-12-23T00:18:35.488Z,7.97
2018-12-23T00:21:01.654Z,8.43
2018-12-23T00:23:27.818Z,8.37
2018-12-23T00:25:54.018Z,7.53
2018-12-23T00:28:20.182Z,7.30
2018-12-23T00:30:46.382Z,8.33
2018-12-23T00:33:12.521Z,7.13
2018-12-23T00:35:38.678Z,8.97
2018-12-23T00:38:04.837Z,5.40
2018-12-23T00:40:30.973Z,4.83
2018-12-23T00:42:57.105Z,6.80
2018-12-23T00:45:23.321Z,6.97
2018-12-23T00:47:49.459Z,8.87
2018-12-23T00:50:16.146Z,9.70
2018-12-23T00:52:42.332Z,3.07
2018-12-23T00:55:08.591Z,4.40
2018-12-23T00:57:34.709Z,4.90
2018-12-23T01:00:00.904Z,3.47
2018-12-23T01:02:27.047Z,2.00
2018-12-23T01:04:53.182Z,1.97
2018-12-23T01:07:19.361Z,2.10
2018-12-23T01:09:45.502Z,3.33
2018-12-23T01:12:11.645Z,3.27
2018-12-23T01:14:37.839Z,2.53
2018-12-23T01:17:04.005Z,2.27
2018-12-23T01:19:30.154Z,1.77
2018-12-23T01:21:56.313Z,2.40
2018-12-23T01:24:22.463Z,2.73
2018-12-23T01:26:48.636Z,3.73
2018-12-23T01:29:14.820Z,2.93
2018-12-23T01:31:41.103Z,2.50
2018-12-23T01:34:07.234Z,2.53
2018-12-23T01:36:33.409Z,2.70
2018-12-23T01:38:59.585Z,3.13
2018-12-23T01:41:25.716Z,2.53
2018-12-23T01:43:51.861Z,4.13
2018-12-23T01:46:18.023Z,3.03
2018-12-23T01:48:44.153Z,2.50
2018-12-23T01:51:10.320Z,4.60
2018-12-23T01:53:36.453Z,2.97
2018-12-23T01:56:02.599Z,4.80
2018-12-23T01:58:28.764Z,3.87
2018-12-23T02:00:54.906Z,4.00
2018-12-23T02:03:21.057Z,4.77
2018-12-23T02:05:47.257Z,2.60
2018-12-23T02:08:13.405Z,2.80
2018-12-23T02:10:39.570Z,3.40
2018-12-23T02:13:05.758Z,4.40
2018-12-23T02:15:31.892Z,2.33
2018-12-23T02:17:58.037Z,4.03
2018-12-23T02:20:24.204Z,3.10
2018-12-23T02:22:50.357Z,3.13
2018-12-23T02:25:16.506Z,4.47
2018-12-23T02:27:42.686Z,6.37
2018-12-23T02:30:08.967Z,3.87
2018-12-23T02:32:35.782Z,3.60
2018-12-23T02:35:01.968Z,3.40
2018-12-23T02:37:28.094Z,3.20
2018-12-23T02:39:54.245Z,3.10
2018-12-23T02:42:20.440Z,3.10
2018-12-23T02:44:46.738Z,3.20
2018-12-23T02:47:12.983Z,3.27
2018-12-23T02:49:39.143Z,2.37
2018-12-23T02:52:05.287Z,2.50
2018-12-23T02:54:31.410Z,3.03
2018-12-23T02:56:57.584Z,2.23
2018-12-23T02:59:23.759Z,2.97
2018-12-23T03:01:49.890Z,3.50
2018-12-23T03:04:16.048Z,3.10
2018-12-23T03:06:42.190Z,2.50
2018-12-23T03:09:08.319Z,3.57
2018-12-23T03:11:34.472Z,3.03
2018-12-23T03:14:00.597Z,2.67
2018-12-23T03:16:26.873Z,3.00
2018-12-23T03:18:53.067Z,4.47
2018-12-23T03:21:19.229Z,2.80
2018-12-23T03:23:45.401Z,2.33
2018-12-23T03:26:11.582Z,3.83
2018-12-23T03:28:37.759Z,3.03
2018-12-23T03:31:03.911Z,2.67
2018-12-23T03:33:30.081Z,2.80
2018-12-23T03:35:56.217Z,3.10
2018-12-23T03:38:22.342Z,3.20
2018-12-23T03:40:48.509Z,2.27
2018-12-23T03:43:14.633Z,2.63
2018-12-23T03:45:40.769Z,3.80
2018-12-23T03:48:06.921Z,2.57
2018-12-23T03:50:33.045Z,2.87
2018-12-23T03:52:59.185Z,2.20
2018-12-23T03:55:25.353Z,2.37
2018-12-23T03:57:51.493Z,4.50
2018-12-23T04:00:17.628Z,2.27
2018-12-23T04:02:43.789Z,4.70
2018-12-23T04:05:09.929Z,2.20
2018-12-23T04:07:36.102Z,2.20
2018-12-23T04:10:02.413Z,2.80
2018-12-23T04:12:28.552Z,2.73
2018-12-23T04:14:54.709Z,5.77
2018-12-23T04:17:22.098Z,3.30
2018-12-23T04:19:48.226Z,2.73
2018-12-23T04:22:14.391Z,2.60
2018-12-23T04:24:41.713Z,4.20
2018-12-23T04:27:07.860Z,2.60
2018-12-23T04:29:34.038Z,2.17
2018-12-23T04:32:00.198Z,3.80
2018-12-23T04:34:26.364Z,2.87
2018-12-23T04:36:52.494Z,2.50
2018-12-23T04:39:18.663Z,2.13
2018-12-23T04:41:44.810Z,3.57
2018-12-23T04:44:10.938Z,2.53
2018-12-23T04:46:37.118Z,1.87
2018-12-23T04:49:03.315Z,2.13
2018-12-23T04:51:29.458Z,2.00
2018-12-23T04:53:55.637Z,2.77
2018-12-23T04:56:21.761Z,2.00
2018-12-23T04:58:47.913Z,4.03
2018-12-23T05:01:14.089Z,3.30
2018-12-23T05:03:42.797Z,1.50
2018-12-23T05:06:08.440Z,4.20
2018-12-23T05:08:34.612Z,2.47
2018-12-23T05:11:00.741Z,2.23
2018-12-23T05:13:26.870Z,1.93
2018-12-23T05:15:53.046Z,1.80
2018-12-23T05:18:19.186Z,2.53
2018-12-23T05:20:45.313Z,3.13
2018-12-23T05:23:11.550Z,2.17
2018-12-23T05:25:37.684Z,2.07
2018-12-23T05:28:03.801Z,2.87
2018-12-23T05:30:30.069Z,2.33
2018-12-23T05:32:56.244Z,3.47
2018-12-23T05:35:22.395Z,2.60
2018-12-23T05:37:48.570Z,2.37
2018-12-23T05:40:14.725Z,2.80
2018-12-23T05:42:40.863Z,1.90
2018-12-23T05:45:07.036Z,2.37
2018-12-23T05:47:33.220Z,1.90
2018-12-23T05:49:59.489Z,1.83
2018-12-23T05:52:25.754Z,1.87
2018-12-23T05:54:51.900Z,3.17
2018-12-23T05:57:18.033Z,1.67
2018-12-23T05:59:44.199Z,2.50
2018-12-23T06:02:10.368Z,1.97
2018-12-23T06:04:36.508Z,2.10
2018-12-23T06:07:02.675Z,2.63
2018-12-23T06:09:28.797Z,2.40
2018-12-23T06:11:54.969Z,2.73
2018-12-23T06:14:21.204Z,5.87
2018-12-23T06:16:47.339Z,2.50
2018-12-23T06:19:13.473Z,3.00
2018-12-23T06:21:39.649Z,2.80
2018-12-23T06:24:05.806Z,3.00
2018-12-23T06:26:31.949Z,9.03
2018-12-23T06:28:58.125Z,7.27
2018-12-23T06:31:24.265Z,4.57
2018-12-23T06:33:50.409Z,2.47
2018-12-23T06:36:17.287Z,2.87
2018-12-23T06:38:43.436Z,5.50
2018-12-23T06:41:09.585Z,2.37
2018-12-23T06:43:35.756Z,2.17
2018-12-23T06:46:01.917Z,2.37
2018-12-23T06:48:28.046Z,1.93
2018-12-23T06:50:54.214Z,3.10
2018-12-23T06:53:20.346Z,2.03
2018-12-23T06:55:46.476Z,2.37
2018-12-23T06:58:12.634Z,2.17
2018-12-23T07:00:38.777Z,2.43
2018-12-23T07:03:04.911Z,4.33
2018-12-23T07:05:31.091Z,4.23
2018-12-23T07:07:57.225Z,3.23
2018-12-23T07:10:23.357Z,2.97
2018-12-23T07:12:49.537Z,4.13
2018-12-23T07:15:15.665Z,6.80
2018-12-23T07:17:41.794Z,2.47
2018-12-23T07:20:07.990Z,5.00
2018-12-23T07:22:34.156Z,4.53
2018-12-23T07:25:00.305Z,4.30
2018-12-23T07:27:26.478Z,4.77
2018-12-23T07:29:52.602Z,4.27
2018-12-23T07:32:18.745Z,3.90
2018-12-23T07:34:44.901Z,3.17
2018-12-23T07:37:11.042Z,4.17
2018-12-23T07:39:37.196Z,3.03
2018-12-23T07:42:03.376Z,5.50
2018-12-23T07:44:29.524Z,3.10
2018-12-23T07:46:55.653Z,4.33
2018-12-23T07:49:21.837Z,5.20
2018-12-23T07:51:47.981Z,3.60
2018-12-23T07:54:14.117Z,4.63
2018-12-23T07:56:40.305Z,5.50
2018-12-23T07:59:06.448Z,4.03
2018-12-23T08:01:32.605Z,7.30
2018-12-23T08:03:58.867Z,3.50
2018-12-23T08:06:25.029Z,5.53
2018-12-23T08:08:51.174Z,6.33
2018-12-23T08:11:17.350Z,8.07
2018-12-23T08:13:43.489Z,3.67
2018-12-23T08:16:09.633Z,3.47
2018-12-23T08:18:35.817Z,5.47
2018-12-23T08:21:01.946Z,8.23
2018-12-23T08:23:28.077Z,4.47
2018-12-23T08:25:54.259Z,7.60
2018-12-23T08:28:26.314Z,4.93
2018-12-23T08:30:52.457Z,6.70
2018-12-23T08:33:18.625Z,4.57
2018-12-23T08:35:44.753Z,5.57
2018-12-23T08:38:10.893Z,4.67
2018-12-23T08:40:37.064Z,6.73
2018-12-23T08:43:03.263Z,10.13
2018-12-23T08:45:29.398Z,5.03
2018-12-23T08:47:55.566Z,6.30
2018-12-23T08:50:21.695Z,3.53
2018-12-23T08:52:47.829Z,6.77
2018-12-23T08:55:14.004Z,6.27
2018-12-23T08:57:40.214Z,7.80
2018-12-23T09:00:06.883Z,5.40
2018-12-23T09:02:33.176Z,6.47
2018-12-23T09:04:59.349Z,3.27
2018-12-23T09:07:25.509Z,7.10
2018-12-23T09:09:51.669Z,6.43
2018-12-23T09:12:17.822Z,5.47
2018-12-23T09:14:43.973Z,5.73
2018-12-23T09:17:10.133Z,5.60
2018-12-23T09:19:36.270Z,6.37
2018-12-23T09:22:02.435Z,3.17
2018-12-23T09:24:28.601Z,6.07
2018-12-23T09:26:54.750Z,4.20
2018-12-23T09:29:20.877Z,3.57
2018-12-23T09:31:47.029Z,6.73
2018-12-23T09:34:13.200Z,6.87
2018-12-23T09:36:39.346Z,8.80
2018-12-23T09:39:05.979Z,5.50
2018-12-23T09:41:32.129Z,6.00
2018-12-23T09:43:58.262Z,5.53
2018-12-23T09:46:24.723Z,5.77
2018-12-23T09:48:50.860Z,4.13
2018-12-23T09:51:16.996Z,4.17
2018-12-23T09:53:43.181Z,3.37
2018-12-23T09:56:09.345Z,4.10
2018-12-23T09:58:35.510Z,5.07
2018-12-23T10:01:01.668Z,4.30
2018-12-23T10:03:27.801Z,4.63
2018-12-23T10:05:53.949Z,3.90
2018-12-23T10:08:20.116Z,3.97
2018-12-23T10:10:46.243Z,2.83
2018-12-23T10:13:12.389Z,2.77
2018-12-23T10:15:38.597Z,5.70
2018-12-23T10:18:04.761Z,2.97
2018-12-23T10:20:31.166Z,5.47
2018-12-23T10:22:57.349Z,4.47
2018-12-23T10:25:23.504Z,3.63
2018-12-23T10:27:49.638Z,3.50
2018-12-23T10:30:15.846Z,7.80
2018-12-23T10:32:42.000Z,3.03
2018-12-23T10:35:08.141Z,4.77
2018-12-23T10:37:34.310Z,3.97
2018-12-23T10:40:00.492Z,4.77
2018-12-23T10:42:26.758Z,4.57
2018-12-23T10:44:52.947Z,5.37
2018-12-23T10:47:19.073Z,4.23
2018-12-23T10:49:45.701Z,2.83
2018-12-23T10:52:12.018Z,2.10
2018-12-23T10:54:38.167Z,5.53
2018-12-23T10:57:04.305Z,6.87
2018-12-23T10:59:31.195Z,5.43
2018-12-23T11:01:57.494Z,4.77
2018-12-23T11:04:23.963Z,2.80
2018-12-23T11:06:50.494Z,2.57
2018-12-23T11:09:16.832Z,2.30
2018-12-23T11:11:42.989Z,5.17
2018-12-23T11:14:09.136Z,1.97
2018-12-23T11:16:35.253Z,1.47
2018-12-23T11:19:01.389Z,2.07
2018-12-23T11:21:27.557Z,1.80
2018-12-23T11:23:53.678Z,2.90
2018-12-23T11:26:19.805Z,3.20
2018-12-23T11:28:45.977Z,3.00
2018-12-23T11:31:12.136Z,2.10
2018-12-23T11:33:38.264Z,3.23
2018-12-23T11:36:04.450Z,4.70
2018-12-23T11:38:35.537Z,2.90
2018-12-23T11:40:59.911Z,2.43
2018-12-23T11:43:26.097Z,3.37
2018-12-23T11:45:52.209Z,3.60
2018-12-23T11:48:18.427Z,1.93
2018-12-23T11:50:44.682Z,2.43
2018-12-23T11:53:10.839Z,2.10
2018-12-23T11:55:36.951Z,2.30
2018-12-23T11:58:03.150Z,1.73
2018-12-23T12:00:29.295Z,1.97
2018-12-23T12:02:55.445Z,2.60
2018-12-23T12:05:21.612Z,3.33
2018-12-23T12:07:47.745Z,2.13
2018-12-23T12:10:13.890Z,2.17
2018-12-23T12:12:40.153Z,2.70
2018-12-23T12:15:06.304Z,2.33
2018-12-23T12:17:32.551Z,3.33
2018-12-23T12:19:58.746Z,2.60
2018-12-23T12:22:24.888Z,4.13
2018-12-23T12:24:51.229Z,4.23
2018-12-23T12:27:17.594Z,2.43
2018-12-23T12:29:43.777Z,4.60
2018-12-23T12:32:10.023Z,4.30
2018-12-23T12:34:36.249Z,3.33
2018-12-23T12:37:02.467Z,2.87
2018-12-23T12:39:28.705Z,4.07
2018-12-23T12:41:54.899Z,5.30
2018-12-23T12:44:21.167Z,3.37
2018-12-23T12:46:47.385Z,3.53
2018-12-23T12:49:13.622Z,3.40
2018-12-23T12:51:39.798Z,2.60
2018-12-23T12:54:05.946Z,3.33
2018-12-23T12:56:32.179Z,2.07
2018-12-23T12:58:58.313Z,4.27
2018-12-23T13:01:24.469Z,5.13
2018-12-23T13:03:50.642Z,3.73
2018-12-23T13:06:16.797Z,2.67
2018-12-23T13:08:42.941Z,2.70
2018-12-23T13:11:09.178Z,3.00
2018-12-23T13:13:35.340Z,4.17
2018-12-23T13:16:01.505Z,7.97
2018-12-23T13:18:27.691Z,3.40
2018-12-23T13:20:53.849Z,1.90
2018-12-23T13:23:19.982Z,3.47
2018-12-23T13:25:46.150Z,3.83
2018-12-23T13:28:12.293Z,3.93
2018-12-23T13:30:38.418Z,4.70
2018-12-23T13:33:04.624Z,3.00
2018-12-23T13:35:30.765Z,4.70
2018-12-23T13:37:57.061Z,3.10
2018-12-23T13:40:27.317Z,8.00
2018-12-23T13:43:05.241Z,2.30
2018-12-23T13:45:58.137Z,4.20
2018-12-23T13:48:32.436Z,4.17
2018-12-23T13:51:26.677Z,2.17
2018-12-23T14:01:14.607Z,5.77
2018-12-23T14:07:21.205Z,3.33
2018-12-23T14:12:48.342Z,4.47
2018-12-23T14:15:14.633Z,3.50
2018-12-23T14:17:41.022Z,6.53
2018-12-23T14:20:07.366Z,5.43
2018-12-23T14:22:33.642Z,10.97
2018-12-23T14:24:59.925Z,7.50
2018-12-23T14:27:26.236Z,9.97
2018-12-23T14:29:52.518Z,7.40
2018-12-23T14:32:18.800Z,7.17
2018-12-23T14:34:45.122Z,18.47
2018-12-23T14:37:11.566Z,11.63
2018-12-23T14:39:37.852Z,7.53
2018-12-23T14:42:04.271Z,10.50
2018-12-23T14:44:30.554Z,7.60
2018-12-23T14:46:56.853Z,10.23
2018-12-23T14:49:23.171Z,15.03
2018-12-23T14:51:49.585Z,21.00
2018-12-23T14:54:15.884Z,27.87
2018-12-23T14:56:42.200Z,12.73
2018-12-23T14:59:08.485Z,8.77
2018-12-23T15:01:34.773Z,14.00
2018-12-23T15:04:01.102Z,18.87
2018-12-23T15:06:27.386Z,28.10
2018-12-23T15:08:53.667Z,7.90
2018-12-23T15:11:20.084Z,6.97
2018-12-23T15:13:46.377Z,12.53
2018-12-23T15:16:12.658Z,24.53
2018-12-23T15:18:38.980Z,17.20
2018-12-23T15:21:05.263Z,15.67
2018-12-23T15:23:31.542Z,12.20
2018-12-23T15:25:57.851Z,8.37
2018-12-23T15:28:24.236Z,13.27
2018-12-23T15:30:50.514Z,5.20
2018-12-23T15:33:16.830Z,11.67
2018-12-23T15:35:43.211Z,14.93
2018-12-23T15:38:09.491Z,11.03
2018-12-23T15:40:35.844Z,13.40
2018-12-23T15:43:02.129Z,4.80
2018-12-23T15:45:28.520Z,10.37
2018-12-23T15:47:54.956Z,11.17
2018-12-23T15:50:21.292Z,12.40
2018-12-23T15:52:47.567Z,12.77
2018-12-23T15:55:14.419Z,11.47
2018-12-23T15:57:40.797Z,15.90
2018-12-23T16:00:48.511Z,15.00
2018-12-23T16:03:14.787Z,9.80
2018-12-23T16:05:41.067Z,13.97
2018-12-23T16:08:07.376Z,6.93
2018-12-23T16:10:33.657Z,7.57
2018-12-23T16:12:59.934Z,5.53
2018-12-23T16:15:26.244Z,10.03
2018-12-23T16:17:52.552Z,11.30
2018-12-23T16:20:18.917Z,9.87
2018-12-23T16:22:45.260Z,6.53
2018-12-23T16:25:11.539Z,9.67
2018-12-23T16:27:37.822Z,9.27
2018-12-23T16:30:45.564Z,10.33
2018-12-23T16:33:11.961Z,6.73
2018-12-23T16:35:38.336Z,6.53
2018-12-23T16:38:04.662Z,7.90
2018-12-23T16:40:30.947Z,7.23
2018-12-23T16:42:57.382Z,7.83
2018-12-23T16:45:23.810Z,13.53
2018-12-23T16:47:50.093Z,7.97
2018-12-23T16:50:16.399Z,9.33
2018-12-23T16:52:42.717Z,11.63
2018-12-23T16:55:09.009Z,6.10
2018-12-23T16:57:35.284Z,3.97
2018-12-23T17:00:01.600Z,3.30
2018-12-23T17:02:28.007Z,4.87
2018-12-23T17:04:54.389Z,5.47
2018-12-23T17:07:20.728Z,4.50
2018-12-23T17:09:47.011Z,4.73
2018-12-23T17:12:13.296Z,5.17
2018-12-23T17:14:39.621Z,4.10
2018-12-23T17:17:05.926Z,3.10
2018-12-23T17:19:32.182Z,5.53
2018-12-23T17:21:58.515Z,10.83
2018-12-23T17:24:24.789Z,12.30
2018-12-23T17:26:51.079Z,20.23
2018-12-23T17:29:17.539Z,21.63
2018-12-23T17:31:43.927Z,20.53
2018-12-23T17:34:10.212Z,12.87
2018-12-23T17:36:36.553Z,5.17
2018-12-23T17:39:44.367Z,6.77
2018-12-23T17:42:10.732Z,6.87
2018-12-23T17:44:37.070Z,5.10
2018-12-23T17:47:03.508Z,2.70
2018-12-23T17:49:30.020Z,4.37
2018-12-23T17:55:10.077Z,4.93
2018-12-23T17:57:36.357Z,4.80
2018-12-23T18:02:57.197Z,8.77
2018-12-23T18:05:23.481Z,9.50
2018-12-23T18:07:49.764Z,13.20
2018-12-23T18:10:16.186Z,9.47
2018-12-23T18:12:42.561Z,15.30
2018-12-23T18:15:08.848Z,11.20
2018-12-23T18:17:35.267Z,6.23
2018-12-23T18:20:01.555Z,6.27
2018-12-23T18:22:27.835Z,7.00
2018-12-23T18:24:54.180Z,6.60
2018-12-23T18:27:20.543Z,5.57
2018-12-23T18:29:46.824Z,3.83
2018-12-23T18:32:13.150Z,4.03
2018-12-23T18:34:39.431Z,7.47
2018-12-23T18:37:05.726Z,8.67
2018-12-23T18:39:32.035Z,15.13
2018-12-23T18:41:58.315Z,14.40
2018-12-23T18:44:24.602Z,19.40
2018-12-23T18:46:51.020Z,17.50
2018-12-23T18:49:17.305Z,8.97
2018-12-23T18:51:43.638Z,5.83
2018-12-23T18:54:10.057Z,9.90
2018-12-23T18:56:36.443Z,7.53
2018-12-23T18:59:02.720Z,10.37
2018-12-23T19:01:29.052Z,12.10
2018-12-23T19:03:55.336Z,11.67
2018-12-23T19:06:21.823Z,8.00
2018-12-23T19:09:29.555Z,3.70
2018-12-23T19:12:35.328Z,2.97
2018-12-23T19:15:43.048Z,4.40
2018-12-23T19:18:52.786Z,5.63
2018-12-23T19:22:00.551Z,5.30
2018-12-23T19:25:06.331Z,5.60
2018-12-23T19:28:12.155Z,4.27
2018-12-23T19:31:18.046Z,4.83
2018-12-23T19:34:23.853Z,5.10
2018-12-23T19:37:29.631Z,4.73
2018-12-23T19:40:35.442Z,4.97
2018-12-23T19:46:54.710Z,3.07
2018-12-23T19:50:00.598Z,5.70
2018-12-23T19:53:06.525Z,8.80
2018-12-23T19:56:12.299Z,2.53
2018-12-23T19:59:18.238Z,5.63
2018-12-23T20:02:24.269Z,3.73
2018-12-23T20:05:30.217Z,5.90
2018-12-23T20:20:52.297Z,3.20
2018-12-23T20:23:58.086Z,5.33
2018-12-23T20:27:03.896Z,2.40
2018-12-23T20:33:23.440Z,3.10
2018-12-23T20:36:29.223Z,2.20
2018-12-23T20:39:36.966Z,2.43
2018-12-23T20:45:43.686Z,6.40
2018-12-23T21:00:51.794Z,2.40
2018-12-23T21:06:58.750Z,5.33
2018-12-23T21:10:04.539Z,5.80
2018-12-23T21:13:10.448Z,2.67
2018-12-23T21:19:30.169Z,8.87
2018-12-23T21:22:36.066Z,3.70
2018-12-23T21:25:41.866Z,3.77
2018-12-23T21:31:48.403Z,4.10
2018-12-23T21:37:54.566Z,1.90
2018-12-23T21:44:01.306Z,2.63
2018-12-23T21:50:07.965Z,14.00
2018-12-23T21:53:13.837Z,17.90
2018-12-23T21:56:19.759Z,6.80
2018-12-23T21:59:25.649Z,4.90
2018-12-23T22:02:33.379Z,2.07
2018-12-23T22:08:46.175Z,2.80
2018-12-23T22:14:26.496Z,5.20
2018-12-23T22:16:52.782Z,4.10
2018-12-23T22:19:19.168Z,2.00
2018-12-23T22:21:45.487Z,2.40
2018-12-23T22:24:11.769Z,4.00
2018-12-23T22:26:38.050Z,2.90
2018-12-23T22:29:04.359Z,8.73
2018-12-23T22:31:30.749Z,5.97
2018-12-23T22:33:57.028Z,2.83
2018-12-23T22:36:23.344Z,4.20
2018-12-23T22:38:49.729Z,4.97
2018-12-23T22:41:16.127Z,4.00
2018-12-23T22:43:42.435Z,23.77
2018-12-23T22:46:08.705Z,18.63
2018-12-23T22:48:34.986Z,21.07
2018-12-23T22:51:01.402Z,31.77
2018-12-23T22:53:27.724Z,40.20
2018-12-23T22:55:54.009Z,16.70
2018-12-23T22:58:20.326Z,50.80
2018-12-23T23:04:00.524Z,26.67
2018-12-23T23:06:26.807Z,18.90
2018-12-23T23:08:53.183Z,20.07
2018-12-23T23:11:19.491Z,32.67
2018-12-23T23:13:45.774Z,22.00
2018-12-23T23:16:12.069Z,17.73
2018-12-23T23:18:38.290Z,10.57
2018-12-23T23:21:04.673Z,7.23
2018-12-23T23:23:30.961Z,3.97
2018-12-23T23:25:57.274Z,7.67
2018-12-23T23:28:23.651Z,3.53
2018-12-23T23:30:49.946Z,5.33
2018-12-23T23:33:16.246Z,5.37
2018-12-23T23:35:42.530Z,2.23
2018-12-23T23:38:08.811Z,4.63
2018-12-23T23:40:35.132Z,2.57
2018-12-23T23:43:01.409Z,2.57
2018-12-23T23:45:27.692Z,4.07
2018-12-23T23:47:54.008Z,4.93
2018-12-23T23:50:20.281Z,2.27
2018-12-23T23:52:46.664Z,4.83
2018-12-23T23:55:13.020Z,1.87
2018-12-23T23:57:39.404Z,2.27
